sensor_id;sensor_type;location;lat;lon;timestamp;P1;durP1;ratioP1;P2;durP2;ratioP2
37693;SDS011;23531;50.122;8.644;2022-08-01T00:00:51;2.38;;;1.08;;
37693;SDS011;23531;50.122;8.644;2022-08-01T00:02:53;3.75;;;1.48;;
37693;SDS011;23531;50.122;8.644;2022-08-01T00:04:55;3.22;;;1.25;;
37693;SDS011;23531;50.122;8.644;2022-08-01T00:06:57;1.10;;;1.00;;
37693;SDS011;23531;50.122;8.644;2022-08-01T00:08:59;2.17;;;1.20;;
37693;SDS011;23531;50.122;8.644;2022-08-01T00:11:00;2.38;;;1.40;;
37693;SDS011;23531;50.122;8.644;2022-08-01T00:13:01;2.67;;;1.10;;
37693;SDS011;23531;50.122;8.644;2022-08-01T00:15:03;2.72;;;1.58;;
37693;SDS011;23531;50.122;8.644;2022-08-01T00:17:05;1.80;;;1.20;;
37693;SDS011;23531;50.122;8.644;2022-08-01T00:19:07;2.22;;;1.30;;
37693;SDS011;23531;50.122;8.644;2022-08-01T00:21:09;1.98;;;1.40;;
37693;SDS011;23531;50.122;8.644;2022-08-01T00:23:11;3.00;;;1.25;;
37693;SDS011;23531;50.122;8.644;2022-08-01T00:25:12;1.60;;;1.08;;
37693;SDS011;23531;50.122;8.644;2022-08-01T00:27:13;1.85;;;1.20;;
37693;SDS011;23531;50.122;8.644;2022-08-01T00:29:15;1.35;;;1.25;;
37693;SDS011;23531;50.122;8.644;2022-08-01T00:31:16;2.22;;;1.17;;
37693;SDS011;23531;50.122;8.644;2022-08-01T00:33:18;2.25;;;1.20;;
37693;SDS011;23531;50.122;8.644;2022-08-01T00:35:19;3.08;;;1.25;;
37693;SDS011;23531;50.122;8.644;2022-08-01T00:37:22;1.50;;;1.40;;
37693;SDS011;23531;50.122;8.644;2022-08-01T00:39:23;1.48;;;1.35;;
37693;SDS011;23531;50.122;8.644;2022-08-01T00:41:24;1.23;;;1.13;;
37693;SDS011;23531;50.122;8.644;2022-08-01T00:43:26;2.58;;;1.30;;
37693;SDS011;23531;50.122;8.644;2022-08-01T00:45:27;3.10;;;1.27;;
37693;SDS011;23531;50.122;8.644;2022-08-01T00:47:28;1.70;;;1.17;;
37693;SDS011;23531;50.122;8.644;2022-08-01T00:49:30;1.40;;;1.20;;
37693;SDS011;23531;50.122;8.644;2022-08-01T00:51:31;2.47;;;1.30;;
37693;SDS011;23531;50.122;8.644;2022-08-01T00:53:35;3.40;;;1.42;;
37693;SDS011;23531;50.122;8.644;2022-08-01T00:55:36;1.42;;;1.30;;
37693;SDS011;23531;50.122;8.644;2022-08-01T00:57:38;3.33;;;1.50;;
37693;SDS011;23531;50.122;8.644;2022-08-01T00:59:41;1.80;;;1.40;;
37693;SDS011;23531;50.122;8.644;2022-08-01T01:01:42;1.33;;;1.20;;
37693;SDS011;23531;50.122;8.644;2022-08-01T01:03:44;1.33;;;1.17;;
37693;SDS011;23531;50.122;8.644;2022-08-01T01:05:48;3.40;;;1.45;;
37693;SDS011;23531;50.122;8.644;2022-08-01T01:07:56;1.92;;;1.48;;
37693;SDS011;23531;50.122;8.644;2022-08-01T01:10:05;1.92;;;1.55;;
37693;SDS011;23531;50.122;8.644;2022-08-01T01:12:15;3.38;;;1.60;;
37693;SDS011;23531;50.122;8.644;2022-08-01T01:14:26;2.90;;;1.40;;
37693;SDS011;23531;50.122;8.644;2022-08-01T01:16:31;2.40;;;1.48;;
37693;SDS011;23531;50.122;8.644;2022-08-01T01:18:35;3.00;;;1.23;;
37693;SDS011;23531;50.122;8.644;2022-08-01T01:20:44;1.88;;;1.10;;
37693;SDS011;23531;50.122;8.644;2022-08-01T01:22:53;1.60;;;1.30;;
37693;SDS011;23531;50.122;8.644;2022-08-01T01:25:17;2.85;;;1.30;;
37693;SDS011;23531;50.122;8.644;2022-08-01T01:27:28;3.53;;;1.40;;
37693;SDS011;23531;50.122;8.644;2022-08-01T01:29:43;2.03;;;1.40;;
37693;SDS011;23531;50.122;8.644;2022-08-01T01:31:47;1.15;;;1.05;;
37693;SDS011;23531;50.122;8.644;2022-08-01T01:33:53;2.13;;;1.40;;
37693;SDS011;23531;50.122;8.644;2022-08-01T01:35:57;2.05;;;1.50;;
37693;SDS011;23531;50.122;8.644;2022-08-01T01:40:09;1.65;;;1.42;;
37693;SDS011;23531;50.122;8.644;2022-08-01T01:42:12;2.90;;;1.27;;
37693;SDS011;23531;50.122;8.644;2022-08-01T01:44:17;1.45;;;1.30;;
37693;SDS011;23531;50.122;8.644;2022-08-01T01:46:23;3.22;;;1.50;;
37693;SDS011;23531;50.122;8.644;2022-08-01T01:48:27;1.83;;;1.13;;
37693;SDS011;23531;50.122;8.644;2022-08-01T01:50:29;1.40;;;1.30;;
37693;SDS011;23531;50.122;8.644;2022-08-01T01:52:33;1.42;;;1.30;;
37693;SDS011;23531;50.122;8.644;2022-08-01T01:54:37;2.25;;;1.33;;
37693;SDS011;23531;50.122;8.644;2022-08-01T01:56:41;2.47;;;1.65;;
37693;SDS011;23531;50.122;8.644;2022-08-01T02:00:52;2.15;;;1.35;;
37693;SDS011;23531;50.122;8.644;2022-08-01T02:02:57;1.90;;;1.23;;
37693;SDS011;23531;50.122;8.644;2022-08-01T02:05:02;2.33;;;1.35;;
37693;SDS011;23531;50.122;8.644;2022-08-01T02:07:05;2.22;;;1.23;;
37693;SDS011;23531;50.122;8.644;2022-08-01T02:09:08;2.33;;;1.30;;
37693;SDS011;23531;50.122;8.644;2022-08-01T02:11:11;1.60;;;1.40;;
37693;SDS011;23531;50.122;8.644;2022-08-01T02:13:22;2.78;;;1.67;;
37693;SDS011;23531;50.122;8.644;2022-08-01T02:15:24;4.60;;;1.58;;
37693;SDS011;23531;50.122;8.644;2022-08-01T02:17:27;1.83;;;1.40;;
37693;SDS011;23531;50.122;8.644;2022-08-01T02:19:31;4.25;;;1.80;;
37693;SDS011;23531;50.122;8.644;2022-08-01T02:21:35;3.65;;;1.30;;
37693;SDS011;23531;50.122;8.644;2022-08-01T02:23:41;2.90;;;1.42;;
37693;SDS011;23531;50.122;8.644;2022-08-01T02:25:44;2.47;;;1.48;;
37693;SDS011;23531;50.122;8.644;2022-08-01T02:27:50;4.25;;;1.73;;
37693;SDS011;23531;50.122;8.644;2022-08-01T02:29:58;1.58;;;1.10;;
37693;SDS011;23531;50.122;8.644;2022-08-01T02:32:00;3.75;;;1.55;;
37693;SDS011;23531;50.122;8.644;2022-08-01T02:34:06;1.40;;;1.30;;
37693;SDS011;23531;50.122;8.644;2022-08-01T02:36:12;1.83;;;1.13;;
37693;SDS011;23531;50.122;8.644;2022-08-01T02:38:15;1.75;;;1.30;;
37693;SDS011;23531;50.122;8.644;2022-08-01T02:40:19;1.75;;;1.23;;
37693;SDS011;23531;50.122;8.644;2022-08-01T02:42:22;1.92;;;1.35;;
37693;SDS011;23531;50.122;8.644;2022-08-01T02:44:26;2.65;;;1.40;;
37693;SDS011;23531;50.122;8.644;2022-08-01T02:46:31;2.50;;;1.40;;
37693;SDS011;23531;50.122;8.644;2022-08-01T02:48:36;1.48;;;1.38;;
37693;SDS011;23531;50.122;8.644;2022-08-01T02:50:39;3.08;;;1.70;;
37693;SDS011;23531;50.122;8.644;2022-08-01T02:52:45;1.63;;;1.52;;
37693;SDS011;23531;50.122;8.644;2022-08-01T02:54:50;2.30;;;1.20;;
37693;SDS011;23531;50.122;8.644;2022-08-01T02:56:54;2.78;;;1.25;;
37693;SDS011;23531;50.122;8.644;2022-08-01T02:58:57;2.28;;;1.60;;
37693;SDS011;23531;50.122;8.644;2022-08-01T03:01:00;1.65;;;1.40;;
37693;SDS011;23531;50.122;8.644;2022-08-01T03:03:03;2.53;;;1.40;;
37693;SDS011;23531;50.122;8.644;2022-08-01T03:05:06;3.35;;;1.67;;
37693;SDS011;23531;50.122;8.644;2022-08-01T03:07:09;4.00;;;1.98;;
37693;SDS011;23531;50.122;8.644;2022-08-01T03:09:13;1.58;;;1.38;;
37693;SDS011;23531;50.122;8.644;2022-08-01T03:11:16;1.38;;;1.08;;
37693;SDS011;23531;50.122;8.644;2022-08-01T03:13:18;1.80;;;1.10;;
37693;SDS011;23531;50.122;8.644;2022-08-01T03:15:23;4.07;;;1.40;;
37693;SDS011;23531;50.122;8.644;2022-08-01T03:17:27;2.72;;;1.50;;
37693;SDS011;23531;50.122;8.644;2022-08-01T03:19:30;2.30;;;1.25;;
37693;SDS011;23531;50.122;8.644;2022-08-01T03:21:32;1.80;;;1.10;;
37693;SDS011;23531;50.122;8.644;2022-08-01T03:23:35;2.22;;;1.70;;
37693;SDS011;23531;50.122;8.644;2022-08-01T03:25:39;1.42;;;1.30;;
37693;SDS011;23531;50.122;8.644;2022-08-01T03:27:45;1.58;;;1.40;;
37693;SDS011;23531;50.122;8.644;2022-08-01T03:29:51;2.50;;;1.30;;
37693;SDS011;23531;50.122;8.644;2022-08-01T03:31:56;1.50;;;1.20;;
37693;SDS011;23531;50.122;8.644;2022-08-01T03:34:00;2.05;;;1.40;;
37693;SDS011;23531;50.122;8.644;2022-08-01T03:36:02;2.47;;;1.20;;
37693;SDS011;23531;50.122;8.644;2022-08-01T03:38:06;2.00;;;1.65;;
37693;SDS011;23531;50.122;8.644;2022-08-01T03:40:11;1.85;;;1.55;;
37693;SDS011;23531;50.122;8.644;2022-08-01T03:42:20;3.60;;;1.67;;
37693;SDS011;23531;50.122;8.644;2022-08-01T03:44:28;1.90;;;1.48;;
37693;SDS011;23531;50.122;8.644;2022-08-01T03:46:35;3.30;;;1.80;;
37693;SDS011;23531;50.122;8.644;2022-08-01T03:48:42;2.65;;;1.40;;
37693;SDS011;23531;50.122;8.644;2022-08-01T03:50:48;1.42;;;1.17;;
37693;SDS011;23531;50.122;8.644;2022-08-01T03:52:52;1.50;;;1.40;;
37693;SDS011;23531;50.122;8.644;2022-08-01T03:54:56;3.00;;;1.52;;
37693;SDS011;23531;50.122;8.644;2022-08-01T03:57:00;3.88;;;1.60;;
37693;SDS011;23531;50.122;8.644;2022-08-01T03:59:04;3.25;;;1.33;;
37693;SDS011;23531;50.122;8.644;2022-08-01T04:01:06;3.97;;;1.50;;
37693;SDS011;23531;50.122;8.644;2022-08-01T04:03:09;2.15;;;1.90;;
37693;SDS011;23531;50.122;8.644;2022-08-01T04:05:13;1.80;;;1.40;;
37693;SDS011;23531;50.122;8.644;2022-08-01T04:07:21;2.75;;;1.20;;
37693;SDS011;23531;50.122;8.644;2022-08-01T04:09:23;2.35;;;1.85;;
37693;SDS011;23531;50.122;8.644;2022-08-01T04:11:26;1.80;;;1.48;;
37693;SDS011;23531;50.122;8.644;2022-08-01T04:13:28;1.92;;;1.73;;
37693;SDS011;23531;50.122;8.644;2022-08-01T04:15:32;1.50;;;1.40;;
37693;SDS011;23531;50.122;8.644;2022-08-01T04:17:33;3.15;;;1.55;;
37693;SDS011;23531;50.122;8.644;2022-08-01T04:19:34;2.47;;;1.70;;
37693;SDS011;23531;50.122;8.644;2022-08-01T04:21:36;2.55;;;1.20;;
37693;SDS011;23531;50.122;8.644;2022-08-01T04:23:38;1.92;;;1.50;;
37693;SDS011;23531;50.122;8.644;2022-08-01T04:25:42;2.30;;;1.40;;
37693;SDS011;23531;50.122;8.644;2022-08-01T04:27:46;2.55;;;1.40;;
37693;SDS011;23531;50.122;8.644;2022-08-01T04:29:50;3.67;;;1.67;;
37693;SDS011;23531;50.122;8.644;2022-08-01T04:31:56;3.35;;;1.58;;
37693;SDS011;23531;50.122;8.644;2022-08-01T04:33:59;4.82;;;1.60;;
37693;SDS011;23531;50.122;8.644;2022-08-01T04:36:03;2.30;;;1.70;;
37693;SDS011;23531;50.122;8.644;2022-08-01T04:38:06;2.88;;;1.40;;
37693;SDS011;23531;50.122;8.644;2022-08-01T04:40:09;3.22;;;1.60;;
37693;SDS011;23531;50.122;8.644;2022-08-01T04:42:12;1.83;;;1.50;;
37693;SDS011;23531;50.122;8.644;2022-08-01T04:44:15;2.65;;;1.42;;
37693;SDS011;23531;50.122;8.644;2022-08-01T04:46:17;3.40;;;1.52;;
37693;SDS011;23531;50.122;8.644;2022-08-01T04:48:21;1.63;;;1.52;;
37693;SDS011;23531;50.122;8.644;2022-08-01T04:50:24;2.13;;;1.58;;
37693;SDS011;23531;50.122;8.644;2022-08-01T04:52:32;4.47;;;1.65;;
37693;SDS011;23531;50.122;8.644;2022-08-01T04:54:34;2.78;;;1.70;;
37693;SDS011;23531;50.122;8.644;2022-08-01T04:56:37;4.13;;;1.80;;
37693;SDS011;23531;50.122;8.644;2022-08-01T04:58:39;1.88;;;1.30;;
37693;SDS011;23531;50.122;8.644;2022-08-01T05:00:41;2.60;;;1.95;;
37693;SDS011;23531;50.122;8.644;2022-08-01T05:02:42;2.63;;;1.70;;
37693;SDS011;23531;50.122;8.644;2022-08-01T05:04:46;2.97;;;1.48;;
37693;SDS011;23531;50.122;8.644;2022-08-01T05:06:48;2.03;;;1.42;;
37693;SDS011;23531;50.122;8.644;2022-08-01T05:08:50;2.53;;;1.70;;
37693;SDS011;23531;50.122;8.644;2022-08-01T05:10:51;3.00;;;1.80;;
37693;SDS011;23531;50.122;8.644;2022-08-01T05:12:52;3.00;;;1.55;;
37693;SDS011;23531;50.122;8.644;2022-08-01T05:14:54;3.45;;;2.20;;
37693;SDS011;23531;50.122;8.644;2022-08-01T05:16:55;8.10;;;2.10;;
37693;SDS011;23531;50.122;8.644;2022-08-01T05:18:57;3.30;;;1.92;;
37693;SDS011;23531;50.122;8.644;2022-08-01T05:20:59;5.53;;;2.05;;
37693;SDS011;23531;50.122;8.644;2022-08-01T05:23:01;4.70;;;1.90;;
37693;SDS011;23531;50.122;8.644;2022-08-01T05:25:03;9.23;;;2.80;;
37693;SDS011;23531;50.122;8.644;2022-08-01T05:27:06;18.38;;;3.47;;
37693;SDS011;23531;50.122;8.644;2022-08-01T05:29:08;6.72;;;2.10;;
37693;SDS011;23531;50.122;8.644;2022-08-01T05:31:09;7.47;;;3.20;;
37693;SDS011;23531;50.122;8.644;2022-08-01T05:33:11;17.92;;;3.60;;
37693;SDS011;23531;50.122;8.644;2022-08-01T05:35:12;4.93;;;2.38;;
37693;SDS011;23531;50.122;8.644;2022-08-01T05:37:15;7.90;;;2.25;;
37693;SDS011;23531;50.122;8.644;2022-08-01T05:39:16;11.52;;;3.03;;
37693;SDS011;23531;50.122;8.644;2022-08-01T05:41:18;3.78;;;2.50;;
37693;SDS011;23531;50.122;8.644;2022-08-01T05:43:19;2.70;;;1.73;;
37693;SDS011;23531;50.122;8.644;2022-08-01T05:45:21;5.38;;;2.20;;
37693;SDS011;23531;50.122;8.644;2022-08-01T05:47:22;49.00;;;4.70;;
37693;SDS011;23531;50.122;8.644;2022-08-01T05:49:23;3.22;;;1.90;;
37693;SDS011;23531;50.122;8.644;2022-08-01T05:51:25;4.15;;;2.00;;
37693;SDS011;23531;50.122;8.644;2022-08-01T05:53:28;3.92;;;1.88;;
37693;SDS011;23531;50.122;8.644;2022-08-01T05:55:29;3.65;;;1.83;;
37693;SDS011;23531;50.122;8.644;2022-08-01T05:57:31;10.48;;;2.08;;
37693;SDS011;23531;50.122;8.644;2022-08-01T05:59:32;3.25;;;1.77;;
37693;SDS011;23531;50.122;8.644;2022-08-01T06:01:34;4.07;;;2.20;;
37693;SDS011;23531;50.122;8.644;2022-08-01T06:03:35;3.92;;;1.98;;
37693;SDS011;23531;50.122;8.644;2022-08-01T06:05:37;3.25;;;2.05;;
37693;SDS011;23531;50.122;8.644;2022-08-01T06:07:38;3.15;;;2.00;;
37693;SDS011;23531;50.122;8.644;2022-08-01T06:09:41;9.82;;;2.17;;
37693;SDS011;23531;50.122;8.644;2022-08-01T06:11:43;3.22;;;2.40;;
37693;SDS011;23531;50.122;8.644;2022-08-01T06:13:44;3.30;;;1.88;;
37693;SDS011;23531;50.122;8.644;2022-08-01T06:15:45;5.38;;;2.40;;
37693;SDS011;23531;50.122;8.644;2022-08-01T06:17:47;4.45;;;2.22;;
37693;SDS011;23531;50.122;8.644;2022-08-01T06:19:49;4.93;;;2.33;;
37693;SDS011;23531;50.122;8.644;2022-08-01T06:21:50;4.53;;;2.20;;
37693;SDS011;23531;50.122;8.644;2022-08-01T06:23:51;3.30;;;2.03;;
37693;SDS011;23531;50.122;8.644;2022-08-01T06:25:54;3.80;;;2.15;;
37693;SDS011;23531;50.122;8.644;2022-08-01T06:27:56;4.30;;;2.28;;
37693;SDS011;23531;50.122;8.644;2022-08-01T06:29:57;2.78;;;1.92;;
37693;SDS011;23531;50.122;8.644;2022-08-01T06:32:00;5.07;;;2.63;;
37693;SDS011;23531;50.122;8.644;2022-08-01T06:34:01;3.90;;;2.42;;
37693;SDS011;23531;50.122;8.644;2022-08-01T06:36:03;3.55;;;2.28;;
37693;SDS011;23531;50.122;8.644;2022-08-01T06:38:04;5.55;;;2.78;;
37693;SDS011;23531;50.122;8.644;2022-08-01T06:40:07;13.07;;;3.65;;
37693;SDS011;23531;50.122;8.644;2022-08-01T06:42:11;2.97;;;2.70;;
37693;SDS011;23531;50.122;8.644;2022-08-01T06:44:14;5.07;;;2.83;;
37693;SDS011;23531;50.122;8.644;2022-08-01T06:46:16;3.72;;;2.72;;
37693;SDS011;23531;50.122;8.644;2022-08-01T06:48:17;4.10;;;3.28;;
37693;SDS011;23531;50.122;8.644;2022-08-01T06:50:19;5.90;;;3.35;;
37693;SDS011;23531;50.122;8.644;2022-08-01T06:52:20;3.90;;;3.47;;
37693;SDS011;23531;50.122;8.644;2022-08-01T06:54:21;4.25;;;3.28;;
37693;SDS011;23531;50.122;8.644;2022-08-01T06:56:23;5.05;;;3.75;;
37693;SDS011;23531;50.122;8.644;2022-08-01T06:58:26;3.80;;;3.40;;
37693;SDS011;23531;50.122;8.644;2022-08-01T07:00:27;6.75;;;3.65;;
37693;SDS011;23531;50.122;8.644;2022-08-01T07:02:29;3.70;;;3.40;;
37693;SDS011;23531;50.122;8.644;2022-08-01T07:04:30;4.00;;;3.15;;
37693;SDS011;23531;50.122;8.644;2022-08-01T07:06:32;4.60;;;3.22;;
37693;SDS011;23531;50.122;8.644;2022-08-01T07:08:33;3.72;;;3.25;;
37693;SDS011;23531;50.122;8.644;2022-08-01T07:10:35;7.57;;;3.70;;
37693;SDS011;23531;50.122;8.644;2022-08-01T07:12:36;4.82;;;3.30;;
37693;SDS011;23531;50.122;8.644;2022-08-01T07:14:39;5.68;;;3.80;;
37693;SDS011;23531;50.122;8.644;2022-08-01T07:16:40;3.85;;;3.10;;
37693;SDS011;23531;50.122;8.644;2022-08-01T07:18:42;4.10;;;3.47;;
37693;SDS011;23531;50.122;8.644;2022-08-01T07:20:44;3.85;;;3.25;;
37693;SDS011;23531;50.122;8.644;2022-08-01T07:22:46;4.18;;;3.72;;
37693;SDS011;23531;50.122;8.644;2022-08-01T07:24:47;5.03;;;4.07;;
37693;SDS011;23531;50.122;8.644;2022-08-01T07:26:48;4.93;;;3.78;;
37693;SDS011;23531;50.122;8.644;2022-08-01T07:28:50;5.82;;;4.47;;
37693;SDS011;23531;50.122;8.644;2022-08-01T07:30:53;4.95;;;3.95;;
37693;SDS011;23531;50.122;8.644;2022-08-01T07:32:54;5.03;;;3.38;;
37693;SDS011;23531;50.122;8.644;2022-08-01T07:34:56;5.70;;;4.28;;
37693;SDS011;23531;50.122;8.644;2022-08-01T07:36:57;4.28;;;3.88;;
37693;SDS011;23531;50.122;8.644;2022-08-01T07:38:59;6.82;;;3.88;;
37693;SDS011;23531;50.122;8.644;2022-08-01T07:41:00;7.85;;;4.05;;
37693;SDS011;23531;50.122;8.644;2022-08-01T07:43:02;4.15;;;3.85;;
37693;SDS011;23531;50.122;8.644;2022-08-01T07:45:04;4.68;;;3.72;;
37693;SDS011;23531;50.122;8.644;2022-08-01T07:47:07;5.53;;;3.58;;
37693;SDS011;23531;50.122;8.644;2022-08-01T07:49:08;5.07;;;4.53;;
37693;SDS011;23531;50.122;8.644;2022-08-01T07:51:10;5.38;;;4.45;;
37693;SDS011;23531;50.122;8.644;2022-08-01T07:53:12;5.50;;;5.00;;
37693;SDS011;23531;50.122;8.644;2022-08-01T07:55:13;5.60;;;5.10;;
37693;SDS011;23531;50.122;8.644;2022-08-01T07:57:14;5.53;;;4.68;;
37693;SDS011;23531;50.122;8.644;2022-08-01T07:59:16;5.50;;;5.00;;
37693;SDS011;23531;50.122;8.644;2022-08-01T08:01:22;5.60;;;5.10;;
37693;SDS011;23531;50.122;8.644;2022-08-01T08:03:25;6.30;;;4.90;;
37693;SDS011;23531;50.122;8.644;2022-08-01T08:05:27;5.80;;;5.30;;
37693;SDS011;23531;50.122;8.644;2022-08-01T08:07:28;5.20;;;4.70;;
37693;SDS011;23531;50.122;8.644;2022-08-01T08:09:30;5.30;;;4.80;;
37693;SDS011;23531;50.122;8.644;2022-08-01T08:11:31;6.10;;;5.53;;
37693;SDS011;23531;50.122;8.644;2022-08-01T08:13:33;7.85;;;4.88;;
37693;SDS011;23531;50.122;8.644;2022-08-01T08:15:34;5.68;;;5.10;;
37693;SDS011;23531;50.122;8.644;2022-08-01T08:17:36;5.95;;;5.07;;
37693;SDS011;23531;50.122;8.644;2022-08-01T08:19:38;5.50;;;5.00;;
37693;SDS011;23531;50.122;8.644;2022-08-01T08:21:40;5.30;;;4.68;;
37693;SDS011;23531;50.122;8.644;2022-08-01T08:23:42;6.07;;;5.47;;
37693;SDS011;23531;50.122;8.644;2022-08-01T08:26:01;5.90;;;5.40;;
37693;SDS011;23531;50.122;8.644;2022-08-01T08:28:02;7.45;;;4.80;;
37693;SDS011;23531;50.122;8.644;2022-08-01T08:30:04;7.32;;;5.35;;
37693;SDS011;23531;50.122;8.644;2022-08-01T08:32:08;8.63;;;4.95;;
37693;SDS011;23531;50.122;8.644;2022-08-01T08:34:09;7.55;;;4.90;;
37693;SDS011;23531;50.122;8.644;2022-08-01T08:36:12;7.03;;;5.35;;
37693;SDS011;23531;50.122;8.644;2022-08-01T08:38:14;6.68;;;5.05;;
37693;SDS011;23531;50.122;8.644;2022-08-01T08:40:16;7.43;;;5.28;;
37693;SDS011;23531;50.122;8.644;2022-08-01T08:42:18;5.32;;;4.80;;
37693;SDS011;23531;50.122;8.644;2022-08-01T08:44:19;9.85;;;5.07;;
37693;SDS011;23531;50.122;8.644;2022-08-01T08:46:21;5.32;;;4.82;;
37693;SDS011;23531;50.122;8.644;2022-08-01T08:48:24;5.43;;;4.93;;
37693;SDS011;23531;50.122;8.644;2022-08-01T08:50:26;5.35;;;4.85;;
37693;SDS011;23531;50.122;8.644;2022-08-01T08:52:30;6.15;;;5.55;;
37693;SDS011;23531;50.122;8.644;2022-08-01T08:54:35;7.88;;;5.65;;
37693;SDS011;23531;50.122;8.644;2022-08-01T08:56:37;6.07;;;5.57;;
37693;SDS011;23531;50.122;8.644;2022-08-01T08:58:40;5.72;;;5.22;;
37693;SDS011;23531;50.122;8.644;2022-08-01T09:00:44;6.28;;;5.78;;
37693;SDS011;23531;50.122;8.644;2022-08-01T09:02:46;6.53;;;5.68;;
37693;SDS011;23531;50.122;8.644;2022-08-01T09:04:50;5.68;;;5.18;;
37693;SDS011;23531;50.122;8.644;2022-08-01T09:06:52;6.53;;;5.85;;
37693;SDS011;23531;50.122;8.644;2022-08-01T09:08:55;6.22;;;5.68;;
37693;SDS011;23531;50.122;8.644;2022-08-01T09:10:57;6.45;;;5.50;;
37693;SDS011;23531;50.122;8.644;2022-08-01T09:13:01;5.97;;;5.40;;
37693;SDS011;23531;50.122;8.644;2022-08-01T09:15:04;6.28;;;5.60;;
37693;SDS011;23531;50.122;8.644;2022-08-01T09:17:07;7.88;;;6.20;;
37693;SDS011;23531;50.122;8.644;2022-08-01T09:19:12;6.88;;;6.10;;
37693;SDS011;23531;50.122;8.644;2022-08-01T09:21:15;6.50;;;5.80;;
37693;SDS011;23531;50.122;8.644;2022-08-01T09:23:30;6.53;;;5.22;;
37693;SDS011;23531;50.122;8.644;2022-08-01T09:28:01;6.28;;;5.15;;
37693;SDS011;23531;50.122;8.644;2022-08-01T09:30:07;6.57;;;5.22;;
37693;SDS011;23531;50.122;8.644;2022-08-01T09:32:11;5.35;;;4.95;;
37693;SDS011;23531;50.122;8.644;2022-08-01T09:34:12;5.88;;;5.38;;
37693;SDS011;23531;50.122;8.644;2022-08-01T09:36:14;5.45;;;5.00;;
37693;SDS011;23531;50.122;8.644;2022-08-01T09:38:17;6.35;;;4.93;;
37693;SDS011;23531;50.122;8.644;2022-08-01T09:40:19;5.82;;;4.97;;
37693;SDS011;23531;50.122;8.644;2022-08-01T09:42:23;5.80;;;4.93;;
37693;SDS011;23531;50.122;8.644;2022-08-01T09:44:38;5.82;;;5.28;;
37693;SDS011;23531;50.122;8.644;2022-08-01T09:46:48;8.10;;;5.43;;
37693;SDS011;23531;50.122;8.644;2022-08-01T09:48:54;5.38;;;4.88;;
37693;SDS011;23531;50.122;8.644;2022-08-01T09:50:59;5.22;;;4.68;;
37693;SDS011;23531;50.122;8.644;2022-08-01T09:53:01;5.50;;;4.43;;
37693;SDS011;23531;50.122;8.644;2022-08-01T09:55:03;7.00;;;5.35;;
37693;SDS011;23531;50.122;8.644;2022-08-01T09:57:07;7.05;;;5.20;;
37693;SDS011;23531;50.122;8.644;2022-08-01T09:59:12;10.07;;;5.43;;
37693;SDS011;23531;50.122;8.644;2022-08-01T10:01:14;7.32;;;5.28;;
37693;SDS011;23531;50.122;8.644;2022-08-01T10:03:18;4.88;;;4.47;;
37693;SDS011;23531;50.122;8.644;2022-08-01T10:05:29;7.60;;;5.25;;
37693;SDS011;23531;50.122;8.644;2022-08-01T10:07:31;7.28;;;5.03;;
37693;SDS011;23531;50.122;8.644;2022-08-01T10:09:34;6.80;;;5.03;;
37693;SDS011;23531;50.122;8.644;2022-08-01T10:11:37;5.78;;;5.28;;
37693;SDS011;23531;50.122;8.644;2022-08-01T10:13:40;5.00;;;4.30;;
37693;SDS011;23531;50.122;8.644;2022-08-01T10:15:43;5.07;;;4.57;;
37693;SDS011;23531;50.122;8.644;2022-08-01T10:17:46;6.88;;;4.57;;
37693;SDS011;23531;50.122;8.644;2022-08-01T10:19:51;6.80;;;4.35;;
37693;SDS011;23531;50.122;8.644;2022-08-01T10:21:55;4.72;;;4.28;;
37693;SDS011;23531;50.122;8.644;2022-08-01T10:23:57;5.85;;;4.45;;
37693;SDS011;23531;50.122;8.644;2022-08-01T10:26:00;5.40;;;4.10;;
37693;SDS011;23531;50.122;8.644;2022-08-01T10:28:05;4.38;;;3.97;;
37693;SDS011;23531;50.122;8.644;2022-08-01T10:30:11;5.50;;;4.40;;
37693;SDS011;23531;50.122;8.644;2022-08-01T10:32:14;5.72;;;3.83;;
37693;SDS011;23531;50.122;8.644;2022-08-01T10:34:17;5.00;;;4.40;;
37693;SDS011;23531;50.122;8.644;2022-08-01T10:36:20;4.47;;;4.05;;
37693;SDS011;23531;50.122;8.644;2022-08-01T10:38:23;5.22;;;3.83;;
37693;SDS011;23531;50.122;8.644;2022-08-01T10:40:24;4.78;;;4.03;;
37693;SDS011;23531;50.122;8.644;2022-08-01T10:42:27;6.18;;;5.30;;
37693;SDS011;23531;50.122;8.644;2022-08-01T10:44:30;6.75;;;5.82;;
37693;SDS011;23531;50.122;8.644;2022-08-01T10:46:32;5.22;;;4.70;;
37693;SDS011;23531;50.122;8.644;2022-08-01T10:48:41;4.03;;;3.70;;
37693;SDS011;23531;50.122;8.644;2022-08-01T10:50:48;5.10;;;3.80;;
37693;SDS011;23531;50.122;8.644;2022-08-01T10:53:09;4.43;;;3.75;;
37693;SDS011;23531;50.122;8.644;2022-08-01T10:55:12;5.35;;;4.10;;
37693;SDS011;23531;50.122;8.644;2022-08-01T10:57:13;4.07;;;3.78;;
37693;SDS011;23531;50.122;8.644;2022-08-01T10:59:20;5.90;;;5.15;;
37693;SDS011;23531;50.122;8.644;2022-08-01T11:01:22;4.53;;;4.03;;
37693;SDS011;23531;50.122;8.644;2022-08-01T11:03:32;6.03;;;3.60;;
37693;SDS011;23531;50.122;8.644;2022-08-01T11:05:36;4.10;;;3.70;;
37693;SDS011;23531;50.122;8.644;2022-08-01T11:07:40;4.20;;;3.80;;
37693;SDS011;23531;50.122;8.644;2022-08-01T11:11:58;6.07;;;5.47;;
37693;SDS011;23531;50.122;8.644;2022-08-01T11:14:03;3.97;;;3.67;;
37693;SDS011;23531;50.122;8.644;2022-08-01T11:16:24;6.33;;;5.73;;
37693;SDS011;23531;50.122;8.644;2022-08-01T11:18:30;4.38;;;3.97;;
37693;SDS011;23531;50.122;8.644;2022-08-01T11:20:33;3.83;;;3.53;;
37693;SDS011;23531;50.122;8.644;2022-08-01T11:25:17;4.38;;;3.95;;
37693;SDS011;23531;50.122;8.644;2022-08-01T11:27:19;4.40;;;4.00;;
37693;SDS011;23531;50.122;8.644;2022-08-01T11:29:21;3.95;;;3.55;;
37693;SDS011;23531;50.122;8.644;2022-08-01T11:31:27;6.05;;;5.45;;
37693;SDS011;23531;50.122;8.644;2022-08-01T11:38:24;4.47;;;4.07;;
37693;SDS011;23531;50.122;8.644;2022-08-01T11:40:28;4.68;;;4.20;;
37693;SDS011;23531;50.122;8.644;2022-08-01T11:42:30;3.90;;;3.58;;
37693;SDS011;23531;50.122;8.644;2022-08-01T11:44:33;6.93;;;4.68;;
37693;SDS011;23531;50.122;8.644;2022-08-01T11:46:51;9.40;;;6.65;;
37693;SDS011;23531;50.122;8.644;2022-08-01T11:51:24;3.63;;;3.28;;
37693;SDS011;23531;50.122;8.644;2022-08-01T11:53:27;3.88;;;3.58;;
37693;SDS011;23531;50.122;8.644;2022-08-01T11:55:29;3.72;;;3.33;;
37693;SDS011;23531;50.122;8.644;2022-08-01T11:57:31;4.18;;;3.72;;
37693;SDS011;23531;50.122;8.644;2022-08-01T11:59:35;5.10;;;4.10;;
37693;SDS011;23531;50.122;8.644;2022-08-01T12:01:39;3.72;;;3.40;;
37693;SDS011;23531;50.122;8.644;2022-08-01T12:03:42;3.95;;;3.65;;
37693;SDS011;23531;50.122;8.644;2022-08-01T12:05:43;5.05;;;3.15;;
37693;SDS011;23531;50.122;8.644;2022-08-01T12:07:47;4.70;;;2.97;;
37693;SDS011;23531;50.122;8.644;2022-08-01T12:09:59;4.85;;;3.10;;
37693;SDS011;23531;50.122;8.644;2022-08-01T12:12:01;3.13;;;2.83;;
37693;SDS011;23531;50.122;8.644;2022-08-01T12:14:03;3.47;;;3.17;;
37693;SDS011;23531;50.122;8.644;2022-08-01T12:16:06;5.88;;;3.00;;
37693;SDS011;23531;50.122;8.644;2022-08-01T12:18:08;3.13;;;2.83;;
37693;SDS011;23531;50.122;8.644;2022-08-01T12:20:10;4.85;;;2.88;;
37693;SDS011;23531;50.122;8.644;2022-08-01T12:22:13;2.90;;;2.70;;
37693;SDS011;23531;50.122;8.644;2022-08-01T12:24:21;3.13;;;2.85;;
37693;SDS011;23531;50.122;8.644;2022-08-01T12:26:24;3.00;;;2.67;;
37693;SDS011;23531;50.122;8.644;2022-08-01T12:28:39;3.00;;;2.80;;
37693;SDS011;23531;50.122;8.644;2022-08-01T12:30:41;3.80;;;2.53;;
37693;SDS011;23531;50.122;8.644;2022-08-01T12:32:43;3.38;;;2.67;;
37693;SDS011;23531;50.122;8.644;2022-08-01T12:34:46;2.85;;;2.55;;
37693;SDS011;23531;50.122;8.644;2022-08-01T12:36:47;6.03;;;3.22;;
37693;SDS011;23531;50.122;8.644;2022-08-01T12:38:51;3.30;;;3.00;;
37693;SDS011;23531;50.122;8.644;2022-08-01T12:40:53;3.38;;;2.58;;
37693;SDS011;23531;50.122;8.644;2022-08-01T12:43:00;2.75;;;2.17;;